Pagrindinis puslapis
METAR-TAF:

METAR-TAF

Oro uostai :

Bankokas, Tailandas

platuma: 13-54-45N, ilguma: 100-36-24E, Aukštis: 4 m

Dabartinis oras

Ataskaita buvo paskelbta 18 minutes, ne 16:00 UTC
Vėjas 3 kt iš Rytų, svyruoja nuo Šiaurės Rytų ir Rytų/Pietryčių
Temperatūra 28°C
Drėgmė 66%
Slėgis 1012 hPa
Matomumas 10 km arba daugiau
Mažai debesys ne aukštis 3000 ft

METAR: VTBD 191600Z 08003KT 050V110 9999 FEW030 28/21 Q1012 NOSIG

Laikas: 23:18 (16:18 UTC)

Prognozė

Ataskaita buvo paskelbta 5 valandos ir 18 minutes, ne 11:00 UTC
Prognozė galioja nuo 19 metu 12 UTC su 20 metu 18 UTC
Vėjas 8 kt iš Rytų
Matomumas 10 km arba daugiau
Mažai debesys ne aukštis 2500 ft
Tapsmas
nuo 19 metu 20 UTC su 19 metu 22 UTC
Vėjas 5 kt iš Šiaurės/Šiaurės Rytų
Matomumas: 8000 m
Tapsmas
nuo 20 metu 02 UTC su 20 metu 04 UTC
Vėjas 8 kt iš Rytų
Matomumas 10 km arba daugiau

TAF: VTBD 191100Z 1912/2018 08008KT 9999 FEW025 BECMG 1920/1922 02005KT 8000 BECMG 2002/2004 08008KT 9999

Orai ataskaitas ir orų prognozės (METAR, TAF).

turimą stotys yra geltonos ir raudonos taškus žemėlapyje.

Perkelti pele per norėdami pamatyti stoties vardą.

Tada spustelėkite, norėdami matyti oro stebėjimo ir prognozės.

Norėdami pakeisti žemėlapį: spustelėkite ant žalios mygtukų su juodo kryžiaus žemyn,; žalią mygtuką su brūkšneliu, jei norite nutolinti; arba žalių rodyklių gretimoms žemėlapius.


METAR-TAF: